Terminal Aerodrome Forecast
Issued by NWS Greer, SC

Home | Current Version | Previous Version | Text Only | Print | Product List | Glossary On
Versions: 1 2 3 4 5 6 7 8 9 10 11 12 13 14 15 16 17 18 19 20 21 22 23 24 25 26
000
FTUS42 KGSP 241603 AAC
TAFCLT
TAF AMD
KCLT 241603Z 2416/2512 24007KT P6SM BKN020
     FM241800 24006KT P6SM VCTS SCT025 BKN040CB
      TEMPO 2420/2424 VRB15G25KT 3SM TSRA OVC020CB
     FM250000 24004KT P6SM OVC050
     FM250400 30003KT P6SM BKN060=

USA.gov is the U.S. government's official web portal to all federal, state and local government web resources and services.